sensor_id;sensor_type;location;lat;lon;timestamp;temperature;humidity
21637;DHT22;10980;49.596;6.142;2023-09-19T00:00:08;14.60;99.90
21637;DHT22;10980;49.596;6.142;2023-09-19T00:03:31;14.60;99.90
21637;DHT22;10980;49.596;6.142;2023-09-19T00:06:53;14.40;99.90
21637;DHT22;10980;49.596;6.142;2023-09-19T00:10:15;14.50;99.90
21637;DHT22;10980;49.596;6.142;2023-09-19T00:13:38;14.40;99.90
21637;DHT22;10980;49.596;6.142;2023-09-19T00:17:04;14.40;99.90
21637;DHT22;10980;49.596;6.142;2023-09-19T00:20:30;14.40;99.90
21637;DHT22;10980;49.596;6.142;2023-09-19T00:23:52;14.40;99.90
21637;DHT22;10980;49.596;6.142;2023-09-19T00:27:14;14.30;99.90
21637;DHT22;10980;49.596;6.142;2023-09-19T00:30:36;14.30;99.90
21637;DHT22;10980;49.596;6.142;2023-09-19T00:34:00;14.30;99.90
21637;DHT22;10980;49.596;6.142;2023-09-19T00:37:28;14.30;99.90
21637;DHT22;10980;49.596;6.142;2023-09-19T00:40:50;14.20;99.90
21637;DHT22;10980;49.596;6.142;2023-09-19T00:44:16;14.20;99.90
21637;DHT22;10980;49.596;6.142;2023-09-19T00:47:40;14.20;99.90
21637;DHT22;10980;49.596;6.142;2023-09-19T00:51:04;14.30;99.90
21637;DHT22;10980;49.596;6.142;2023-09-19T00:54:27;14.20;99.90
21637;DHT22;10980;49.596;6.142;2023-09-19T00:57:49;14.10;99.90
21637;DHT22;10980;49.596;6.142;2023-09-19T01:01:13;14.00;99.90
21637;DHT22;10980;49.596;6.142;2023-09-19T01:04:36;14.00;99.90
21637;DHT22;10980;49.596;6.142;2023-09-19T01:07:59;13.90;99.90
21637;DHT22;10980;49.596;6.142;2023-09-19T01:11:34;13.90;99.90
21637;DHT22;10980;49.596;6.142;2023-09-19T01:15:25;13.90;99.90
21637;DHT22;10980;49.596;6.142;2023-09-19T01:27:25;14.40;99.90
21637;DHT22;10980;49.596;6.142;2023-09-19T01:30:56;14.60;99.90
21637;DHT22;10980;49.596;6.142;2023-09-19T01:34:21;14.50;99.90
21637;DHT22;10980;49.596;6.142;2023-09-19T01:37:44;14.50;99.90
21637;DHT22;10980;49.596;6.142;2023-09-19T01:41:11;14.60;99.90
21637;DHT22;10980;49.596;6.142;2023-09-19T01:52:09;14.30;99.90
21637;DHT22;10980;49.596;6.142;2023-09-19T01:55:43;14.10;99.90
21637;DHT22;10980;49.596;6.142;2023-09-19T01:59:14;14.10;99.90
21637;DHT22;10980;49.596;6.142;2023-09-19T02:02:46;14.10;99.90
21637;DHT22;10980;49.596;6.142;2023-09-19T02:06:14;14.20;99.90
21637;DHT22;10980;49.596;6.142;2023-09-19T02:09:40;14.20;99.90
21637;DHT22;10980;49.596;6.142;2023-09-19T02:13:04;14.20;99.90
21637;DHT22;10980;49.596;6.142;2023-09-19T02:16:27;14.30;99.90
21637;DHT22;10980;49.596;6.142;2023-09-19T02:19:50;14.40;99.90
21637;DHT22;10980;49.596;6.142;2023-09-19T02:23:13;14.40;99.90
21637;DHT22;10980;49.596;6.142;2023-09-19T02:26:37;14.40;99.90
21637;DHT22;10980;49.596;6.142;2023-09-19T02:30:00;14.40;99.90
21637;DHT22;10980;49.596;6.142;2023-09-19T02:33:25;14.40;99.90
21637;DHT22;10980;49.596;6.142;2023-09-19T02:36:47;14.40;99.90
21637;DHT22;10980;49.596;6.142;2023-09-19T02:40:11;14.40;99.90
21637;DHT22;10980;49.596;6.142;2023-09-19T02:43:47;14.40;99.90
21637;DHT22;10980;49.596;6.142;2023-09-19T02:47:09;14.40;99.90
21637;DHT22;10980;49.596;6.142;2023-09-19T02:50:31;14.30;99.90
21637;DHT22;10980;49.596;6.142;2023-09-19T02:53:54;14.30;99.90
21637;DHT22;10980;49.596;6.142;2023-09-19T02:57:18;14.20;99.90
21637;DHT22;10980;49.596;6.142;2023-09-19T03:00:41;14.20;99.90
21637;DHT22;10980;49.596;6.142;2023-09-19T03:04:04;14.10;99.90
21637;DHT22;10980;49.596;6.142;2023-09-19T03:07:30;14.10;99.90
21637;DHT22;10980;49.596;6.142;2023-09-19T03:10:52;14.10;99.90
21637;DHT22;10980;49.596;6.142;2023-09-19T03:14:15;14.00;99.90
21637;DHT22;10980;49.596;6.142;2023-09-19T03:17:38;13.90;99.90
21637;DHT22;10980;49.596;6.142;2023-09-19T03:21:04;13.90;99.90
21637;DHT22;10980;49.596;6.142;2023-09-19T03:24:26;13.70;99.90
21637;DHT22;10980;49.596;6.142;2023-09-19T03:27:49;13.70;99.90
21637;DHT22;10980;49.596;6.142;2023-09-19T03:31:12;13.60;99.90
21637;DHT22;10980;49.596;6.142;2023-09-19T03:34:36;13.60;99.90
21637;DHT22;10980;49.596;6.142;2023-09-19T03:38:02;13.60;99.90
21637;DHT22;10980;49.596;6.142;2023-09-19T03:41:24;13.60;99.90
21637;DHT22;10980;49.596;6.142;2023-09-19T03:44:46;13.70;99.90
21637;DHT22;10980;49.596;6.142;2023-09-19T03:48:09;13.80;99.90
21637;DHT22;10980;49.596;6.142;2023-09-19T03:51:31;13.90;99.90
21637;DHT22;10980;49.596;6.142;2023-09-19T03:54:56;14.00;99.90
21637;DHT22;10980;49.596;6.142;2023-09-19T03:58:17;14.10;99.90
21637;DHT22;10980;49.596;6.142;2023-09-19T04:01:40;14.10;99.90
21637;DHT22;10980;49.596;6.142;2023-09-19T04:05:03;14.10;99.90
21637;DHT22;10980;49.596;6.142;2023-09-19T04:08:25;14.20;99.90
21637;DHT22;10980;49.596;6.142;2023-09-19T04:11:47;14.20;99.90
21637;DHT22;10980;49.596;6.142;2023-09-19T04:15:09;14.00;99.90
21637;DHT22;10980;49.596;6.142;2023-09-19T04:18:34;13.90;99.90
21637;DHT22;10980;49.596;6.142;2023-09-19T04:22:00;13.90;99.90
21637;DHT22;10980;49.596;6.142;2023-09-19T04:25:22;13.70;99.90
21637;DHT22;10980;49.596;6.142;2023-09-19T04:28:44;13.60;99.90
21637;DHT22;10980;49.596;6.142;2023-09-19T04:32:08;13.60;99.90
21637;DHT22;10980;49.596;6.142;2023-09-19T04:35:31;13.60;99.90
21637;DHT22;10980;49.596;6.142;2023-09-19T04:38:53;13.70;99.90
21637;DHT22;10980;49.596;6.142;2023-09-19T04:42:15;13.70;99.90
21637;DHT22;10980;49.596;6.142;2023-09-19T04:45:38;13.80;99.90
21637;DHT22;10980;49.596;6.142;2023-09-19T04:49:01;14.00;99.90
21637;DHT22;10980;49.596;6.142;2023-09-19T04:52:26;13.90;99.90
21637;DHT22;10980;49.596;6.142;2023-09-19T04:55:52;13.70;99.90
21637;DHT22;10980;49.596;6.142;2023-09-19T04:59:17;13.60;99.90
21637;DHT22;10980;49.596;6.142;2023-09-19T05:02:40;13.50;99.90
21637;DHT22;10980;49.596;6.142;2023-09-19T05:06:03;13.50;99.90
21637;DHT22;10980;49.596;6.142;2023-09-19T05:09:26;13.50;99.90
21637;DHT22;10980;49.596;6.142;2023-09-19T05:12:48;13.40;99.90
21637;DHT22;10980;49.596;6.142;2023-09-19T05:16:13;13.30;99.90
21637;DHT22;10980;49.596;6.142;2023-09-19T05:19:35;14.10;99.90
21637;DHT22;10980;49.596;6.142;2023-09-19T05:26:26;16.00;99.90
21637;DHT22;10980;49.596;6.142;2023-09-19T05:29:48;16.50;99.90
21637;DHT22;10980;49.596;6.142;2023-09-19T05:33:12;16.90;99.90
21637;DHT22;10980;49.596;6.142;2023-09-19T05:36:35;16.30;99.90
21637;DHT22;10980;49.596;6.142;2023-09-19T05:39:56;15.60;99.90
21637;DHT22;10980;49.596;6.142;2023-09-19T05:43:19;15.00;99.90
21637;DHT22;10980;49.596;6.142;2023-09-19T05:46:41;14.70;99.90
21637;DHT22;10980;49.596;6.142;2023-09-19T05:50:03;14.50;99.90
21637;DHT22;10980;49.596;6.142;2023-09-19T05:53:27;14.40;99.90
21637;DHT22;10980;49.596;6.142;2023-09-19T05:56:50;14.40;99.90
21637;DHT22;10980;49.596;6.142;2023-09-19T06:00:14;14.30;99.90
21637;DHT22;10980;49.596;6.142;2023-09-19T06:03:39;14.30;99.90
21637;DHT22;10980;49.596;6.142;2023-09-19T06:07:01;14.40;99.90
21637;DHT22;10980;49.596;6.142;2023-09-19T06:10:24;14.40;99.90
21637;DHT22;10980;49.596;6.142;2023-09-19T06:13:46;14.40;99.90
21637;DHT22;10980;49.596;6.142;2023-09-19T06:17:12;14.40;99.90
21637;DHT22;10980;49.596;6.142;2023-09-19T06:20:35;14.30;99.90
21637;DHT22;10980;49.596;6.142;2023-09-19T06:23:57;14.30;99.90
21637;DHT22;10980;49.596;6.142;2023-09-19T06:27:19;14.30;99.90
21637;DHT22;10980;49.596;6.142;2023-09-19T06:30:44;14.50;99.90
21637;DHT22;10980;49.596;6.142;2023-09-19T06:34:06;14.50;99.90
21637;DHT22;10980;49.596;6.142;2023-09-19T06:37:29;14.60;99.90
21637;DHT22;10980;49.596;6.142;2023-09-19T06:40:51;14.80;99.90
21637;DHT22;10980;49.596;6.142;2023-09-19T06:44:14;14.90;99.90
21637;DHT22;10980;49.596;6.142;2023-09-19T06:47:36;15.10;99.90
21637;DHT22;10980;49.596;6.142;2023-09-19T06:50:58;15.10;99.90
21637;DHT22;10980;49.596;6.142;2023-09-19T06:54:23;15.20;99.90
21637;DHT22;10980;49.596;6.142;2023-09-19T06:57:48;15.30;99.90
21637;DHT22;10980;49.596;6.142;2023-09-19T07:01:10;15.50;99.90
21637;DHT22;10980;49.596;6.142;2023-09-19T07:04:32;15.50;99.90
21637;DHT22;10980;49.596;6.142;2023-09-19T07:07:54;15.70;99.90
21637;DHT22;10980;49.596;6.142;2023-09-19T07:11:22;15.80;99.90
21637;DHT22;10980;49.596;6.142;2023-09-19T07:14:44;15.90;99.90
21637;DHT22;10980;49.596;6.142;2023-09-19T07:18:06;16.10;99.90
21637;DHT22;10980;49.596;6.142;2023-09-19T07:21:32;16.30;99.90
21637;DHT22;10980;49.596;6.142;2023-09-19T07:24:54;16.60;99.90
21637;DHT22;10980;49.596;6.142;2023-09-19T07:28:17;16.80;99.90
21637;DHT22;10980;49.596;6.142;2023-09-19T07:31:39;16.90;99.90
21637;DHT22;10980;49.596;6.142;2023-09-19T07:35:01;17.20;99.90
21637;DHT22;10980;49.596;6.142;2023-09-19T07:38:23;17.30;98.30
21637;DHT22;10980;49.596;6.142;2023-09-19T07:41:44;17.30;97.20
21637;DHT22;10980;49.596;6.142;2023-09-19T07:45:07;17.40;97.20
21637;DHT22;10980;49.596;6.142;2023-09-19T07:48:30;17.50;96.30
21637;DHT22;10980;49.596;6.142;2023-09-19T07:51:52;17.60;96.00
21637;DHT22;10980;49.596;6.142;2023-09-19T07:55:16;17.80;96.00
21637;DHT22;10980;49.596;6.142;2023-09-19T07:58:39;18.10;95.50
21637;DHT22;10980;49.596;6.142;2023-09-19T08:02:05;18.40;94.70
21637;DHT22;10980;49.596;6.142;2023-09-19T08:05:30;18.80;93.40
21637;DHT22;10980;49.596;6.142;2023-09-19T08:08:51;19.00;92.20
21637;DHT22;10980;49.596;6.142;2023-09-19T08:12:15;19.20;91.70
21637;DHT22;10980;49.596;6.142;2023-09-19T08:15:43;19.30;91.90
21637;DHT22;10980;49.596;6.142;2023-09-19T08:19:06;19.40;91.60
21637;DHT22;10980;49.596;6.142;2023-09-19T08:22:28;19.40;90.90
21637;DHT22;10980;49.596;6.142;2023-09-19T08:25:50;19.50;90.70
21637;DHT22;10980;49.596;6.142;2023-09-19T08:29:12;19.40;90.10
21637;DHT22;10980;49.596;6.142;2023-09-19T08:32:34;19.40;90.50
21637;DHT22;10980;49.596;6.142;2023-09-19T08:35:56;19.40;89.50
21637;DHT22;10980;49.596;6.142;2023-09-19T08:39:18;19.60;89.50
21637;DHT22;10980;49.596;6.142;2023-09-19T08:42:51;19.60;89.20
21637;DHT22;10980;49.596;6.142;2023-09-19T08:46:15;19.70;88.70
21637;DHT22;10980;49.596;6.142;2023-09-19T08:50:07;19.80;87.50
21637;DHT22;10980;49.596;6.142;2023-09-19T08:53:51;20.10;89.00
21637;DHT22;10980;49.596;6.142;2023-09-19T08:57:20;20.40;84.90
21637;DHT22;10980;49.596;6.142;2023-09-19T09:00:45;20.40;84.40
21637;DHT22;10980;49.596;6.142;2023-09-19T09:04:11;20.30;83.40
21637;DHT22;10980;49.596;6.142;2023-09-19T09:07:36;20.50;83.90
21637;DHT22;10980;49.596;6.142;2023-09-19T09:10:59;20.60;82.10
21637;DHT22;10980;49.596;6.142;2023-09-19T09:14:21;20.70;83.00
21637;DHT22;10980;49.596;6.142;2023-09-19T09:17:43;20.80;81.90
21637;DHT22;10980;49.596;6.142;2023-09-19T09:21:06;20.90;81.20
21637;DHT22;10980;49.596;6.142;2023-09-19T09:24:29;21.10;79.70
21637;DHT22;10980;49.596;6.142;2023-09-19T09:28:02;21.40;79.00
21637;DHT22;10980;49.596;6.142;2023-09-19T09:31:25;21.60;78.40
21637;DHT22;10980;49.596;6.142;2023-09-19T09:34:55;21.70;75.80
21637;DHT22;10980;49.596;6.142;2023-09-19T09:38:24;21.70;78.70
21637;DHT22;10980;49.596;6.142;2023-09-19T09:41:49;22.00;73.70
21637;DHT22;10980;49.596;6.142;2023-09-19T09:45:19;22.00;74.70
21637;DHT22;10980;49.596;6.142;2023-09-19T09:49:03;22.10;76.60
21637;DHT22;10980;49.596;6.142;2023-09-19T09:52:46;22.30;74.70
21637;DHT22;10980;49.596;6.142;2023-09-19T09:56:08;22.40;72.60
21637;DHT22;10980;49.596;6.142;2023-09-19T09:59:54;22.50;73.20
21637;DHT22;10980;49.596;6.142;2023-09-19T10:03:20;22.50;71.20
21637;DHT22;10980;49.596;6.142;2023-09-19T10:06:45;22.30;71.50
21637;DHT22;10980;49.596;6.142;2023-09-19T10:10:13;22.20;75.20
21637;DHT22;10980;49.596;6.142;2023-09-19T10:13:38;22.00;72.20
21637;DHT22;10980;49.596;6.142;2023-09-19T10:17:10;21.90;74.30
21637;DHT22;10980;49.596;6.142;2023-09-19T10:20:37;21.80;74.90
21637;DHT22;10980;49.596;6.142;2023-09-19T10:24:01;22.00;76.70
21637;DHT22;10980;49.596;6.142;2023-09-19T10:27:30;22.00;69.90
21637;DHT22;10980;49.596;6.142;2023-09-19T10:31:00;22.00;72.10
21637;DHT22;10980;49.596;6.142;2023-09-19T10:34:24;21.90;69.90
21637;DHT22;10980;49.596;6.142;2023-09-19T10:37:50;21.80;72.20
21637;DHT22;10980;49.596;6.142;2023-09-19T10:41:16;21.80;72.10
21637;DHT22;10980;49.596;6.142;2023-09-19T10:44:42;21.90;70.30
21637;DHT22;10980;49.596;6.142;2023-09-19T10:48:07;21.70;70.10
21637;DHT22;10980;49.596;6.142;2023-09-19T10:51:33;21.60;72.40
21637;DHT22;10980;49.596;6.142;2023-09-19T10:55:02;21.90;72.90
21637;DHT22;10980;49.596;6.142;2023-09-19T10:58:29;22.30;69.60
21637;DHT22;10980;49.596;6.142;2023-09-19T11:01:58;22.50;68.60
21637;DHT22;10980;49.596;6.142;2023-09-19T11:05:22;22.30;70.20
21637;DHT22;10980;49.596;6.142;2023-09-19T11:09:03;22.20;70.00
21637;DHT22;10980;49.596;6.142;2023-09-19T11:16:08;21.70;70.40
21637;DHT22;10980;49.596;6.142;2023-09-19T11:23:35;22.10;73.40
21637;DHT22;10980;49.596;6.142;2023-09-19T11:27:12;22.00;69.80
21637;DHT22;10980;49.596;6.142;2023-09-19T11:30:40;21.80;72.10
21637;DHT22;10980;49.596;6.142;2023-09-19T11:34:38;21.70;71.40
21637;DHT22;10980;49.596;6.142;2023-09-19T11:38:01;21.50;74.10
21637;DHT22;10980;49.596;6.142;2023-09-19T11:44:48;21.40;74.10
21637;DHT22;10980;49.596;6.142;2023-09-19T11:48:15;21.40;72.80
21637;DHT22;10980;49.596;6.142;2023-09-19T11:51:41;21.40;73.30
21637;DHT22;10980;49.596;6.142;2023-09-19T11:55:07;21.50;75.80
21637;DHT22;10980;49.596;6.142;2023-09-19T11:58:32;21.60;73.30
21637;DHT22;10980;49.596;6.142;2023-09-19T12:02:04;21.40;71.40
21637;DHT22;10980;49.596;6.142;2023-09-19T12:05:31;21.20;71.90
21637;DHT22;10980;49.596;6.142;2023-09-19T12:08:55;21.00;72.60
21637;DHT22;10980;49.596;6.142;2023-09-19T12:12:23;20.80;71.80
21637;DHT22;10980;49.596;6.142;2023-09-19T12:15:49;20.70;72.30
21637;DHT22;10980;49.596;6.142;2023-09-19T12:19:18;20.60;79.10
21637;DHT22;10980;49.596;6.142;2023-09-19T12:22:46;20.60;75.80
21637;DHT22;10980;49.596;6.142;2023-09-19T12:26:09;20.70;75.00
21637;DHT22;10980;49.596;6.142;2023-09-19T12:29:50;20.80;73.30
21637;DHT22;10980;49.596;6.142;2023-09-19T12:33:20;20.90;76.70
21637;DHT22;10980;49.596;6.142;2023-09-19T12:36:42;20.90;74.00
21637;DHT22;10980;49.596;6.142;2023-09-19T12:40:06;20.80;73.70
21637;DHT22;10980;49.596;6.142;2023-09-19T12:43:39;20.60;71.90
21637;DHT22;10980;49.596;6.142;2023-09-19T12:47:12;20.70;74.40
21637;DHT22;10980;49.596;6.142;2023-09-19T12:54:40;21.30;73.30
21637;DHT22;10980;49.596;6.142;2023-09-19T12:58:12;21.50;73.90
21637;DHT22;10980;49.596;6.142;2023-09-19T13:01:34;21.80;72.90
21637;DHT22;10980;49.596;6.142;2023-09-19T13:05:02;22.20;74.20
21637;DHT22;10980;49.596;6.142;2023-09-19T13:08:32;22.20;70.90
21637;DHT22;10980;49.596;6.142;2023-09-19T13:12:00;22.10;72.40
21637;DHT22;10980;49.596;6.142;2023-09-19T13:15:25;21.80;71.40
21637;DHT22;10980;49.596;6.142;2023-09-19T13:18:53;22.00;72.40
21637;DHT22;10980;49.596;6.142;2023-09-19T13:22:38;22.20;71.50
21637;DHT22;10980;49.596;6.142;2023-09-19T13:26:06;22.10;71.30
21637;DHT22;10980;49.596;6.142;2023-09-19T13:29:28;21.80;76.60
21637;DHT22;10980;49.596;6.142;2023-09-19T13:32:51;21.80;74.90
21637;DHT22;10980;49.596;6.142;2023-09-19T13:36:14;21.60;72.60
21637;DHT22;10980;49.596;6.142;2023-09-19T13:39:36;21.30;71.70
21637;DHT22;10980;49.596;6.142;2023-09-19T13:42:59;21.20;73.80
21637;DHT22;10980;49.596;6.142;2023-09-19T13:46:21;21.30;74.80
21637;DHT22;10980;49.596;6.142;2023-09-19T13:49:47;21.30;73.90
21637;DHT22;10980;49.596;6.142;2023-09-19T13:53:12;21.30;74.90
21637;DHT22;10980;49.596;6.142;2023-09-19T13:56:34;21.40;74.00
21637;DHT22;10980;49.596;6.142;2023-09-19T13:59:56;21.30;73.10
21637;DHT22;10980;49.596;6.142;2023-09-19T14:03:18;21.20;72.90
21637;DHT22;10980;49.596;6.142;2023-09-19T14:06:42;21.10;74.20
21637;DHT22;10980;49.596;6.142;2023-09-19T14:10:05;21.20;74.20
21637;DHT22;10980;49.596;6.142;2023-09-19T14:13:30;21.20;73.30
21637;DHT22;10980;49.596;6.142;2023-09-19T14:16:51;21.30;73.70
21637;DHT22;10980;49.596;6.142;2023-09-19T14:20:14;21.40;79.20
21637;DHT22;10980;49.596;6.142;2023-09-19T14:23:38;21.50;74.10
21637;DHT22;10980;49.596;6.142;2023-09-19T14:27:00;21.40;75.10
21637;DHT22;10980;49.596;6.142;2023-09-19T14:30:22;21.40;74.60
21637;DHT22;10980;49.596;6.142;2023-09-19T14:33:44;21.50;77.50
21637;DHT22;10980;49.596;6.142;2023-09-19T14:37:06;21.40;74.90
21637;DHT22;10980;49.596;6.142;2023-09-19T14:40:28;21.40;76.50
21637;DHT22;10980;49.596;6.142;2023-09-19T14:43:50;21.60;75.60
21637;DHT22;10980;49.596;6.142;2023-09-19T14:47:12;21.60;75.10
21637;DHT22;10980;49.596;6.142;2023-09-19T14:50:35;21.60;75.00
21637;DHT22;10980;49.596;6.142;2023-09-19T14:53:57;21.60;74.60
21637;DHT22;10980;49.596;6.142;2023-09-19T14:57:20;21.60;75.10
21637;DHT22;10980;49.596;6.142;2023-09-19T15:00:42;21.60;76.10
21637;DHT22;10980;49.596;6.142;2023-09-19T15:04:06;21.80;73.80
21637;DHT22;10980;49.596;6.142;2023-09-19T15:07:28;21.80;74.40
21637;DHT22;10980;49.596;6.142;2023-09-19T15:10:50;21.70;75.20
21637;DHT22;10980;49.596;6.142;2023-09-19T15:14:15;21.40;81.70
21637;DHT22;10980;49.596;6.142;2023-09-19T15:17:37;21.60;86.80
21637;DHT22;10980;49.596;6.142;2023-09-19T15:21:06;21.80;86.50
21637;DHT22;10980;49.596;6.142;2023-09-19T15:24:29;22.10;85.60
21637;DHT22;10980;49.596;6.142;2023-09-19T15:27:51;22.20;84.30
21637;DHT22;10980;49.596;6.142;2023-09-19T15:31:13;22.30;84.40
21637;DHT22;10980;49.596;6.142;2023-09-19T15:34:35;22.30;85.70
21637;DHT22;10980;49.596;6.142;2023-09-19T15:37:57;22.40;85.00
21637;DHT22;10980;49.596;6.142;2023-09-19T15:41:20;22.50;84.50
21637;DHT22;10980;49.596;6.142;2023-09-19T15:44:43;22.40;83.70
21637;DHT22;10980;49.596;6.142;2023-09-19T15:48:06;22.20;83.10
21637;DHT22;10980;49.596;6.142;2023-09-19T15:51:28;22.20;84.10
21637;DHT22;10980;49.596;6.142;2023-09-19T15:54:50;22.10;84.10
21637;DHT22;10980;49.596;6.142;2023-09-19T15:58:13;22.10;84.60
21637;DHT22;10980;49.596;6.142;2023-09-19T16:01:36;22.00;85.30
21637;DHT22;10980;49.596;6.142;2023-09-19T16:04:59;21.70;84.80
21637;DHT22;10980;49.596;6.142;2023-09-19T16:08:21;21.70;84.10
21637;DHT22;10980;49.596;6.142;2023-09-19T16:11:43;21.60;84.70
21637;DHT22;10980;49.596;6.142;2023-09-19T16:15:05;21.60;85.90
21637;DHT22;10980;49.596;6.142;2023-09-19T16:18:32;21.70;85.30
21637;DHT22;10980;49.596;6.142;2023-09-19T16:21:56;21.60;84.60
21637;DHT22;10980;49.596;6.142;2023-09-19T16:25:18;21.50;85.60
21637;DHT22;10980;49.596;6.142;2023-09-19T16:28:41;21.30;85.60
21637;DHT22;10980;49.596;6.142;2023-09-19T16:32:04;21.20;85.40
21637;DHT22;10980;49.596;6.142;2023-09-19T16:35:26;21.10;86.40
21637;DHT22;10980;49.596;6.142;2023-09-19T16:38:48;21.20;87.70
21637;DHT22;10980;49.596;6.142;2023-09-19T16:42:10;21.20;85.80
21637;DHT22;10980;49.596;6.142;2023-09-19T16:45:55;21.10;84.00
21637;DHT22;10980;49.596;6.142;2023-09-19T16:49:18;21.00;85.90
21637;DHT22;10980;49.596;6.142;2023-09-19T16:52:39;20.90;85.80
21637;DHT22;10980;49.596;6.142;2023-09-19T16:56:06;20.90;87.70
21637;DHT22;10980;49.596;6.142;2023-09-19T16:59:33;20.90;87.70
21637;DHT22;10980;49.596;6.142;2023-09-19T17:02:55;21.00;86.50
21637;DHT22;10980;49.596;6.142;2023-09-19T17:06:20;20.90;84.90
21637;DHT22;10980;49.596;6.142;2023-09-19T17:09:45;20.90;87.40
21637;DHT22;10980;49.596;6.142;2023-09-19T17:13:07;20.70;87.20
21637;DHT22;10980;49.596;6.142;2023-09-19T17:16:30;20.60;87.80
21637;DHT22;10980;49.596;6.142;2023-09-19T17:19:52;20.60;87.90
21637;DHT22;10980;49.596;6.142;2023-09-19T17:23:15;20.70;87.70
21637;DHT22;10980;49.596;6.142;2023-09-19T17:26:37;20.80;87.60
21637;DHT22;10980;49.596;6.142;2023-09-19T17:29:59;20.80;87.10
21637;DHT22;10980;49.596;6.142;2023-09-19T17:33:20;20.70;87.90
21637;DHT22;10980;49.596;6.142;2023-09-19T17:36:43;20.60;86.70
21637;DHT22;10980;49.596;6.142;2023-09-19T17:40:10;20.50;88.40
21637;DHT22;10980;49.596;6.142;2023-09-19T17:43:33;20.40;88.70
21637;DHT22;10980;49.596;6.142;2023-09-19T17:46:56;20.10;86.60
21637;DHT22;10980;49.596;6.142;2023-09-19T17:50:17;19.60;87.10
21637;DHT22;10980;49.596;6.142;2023-09-19T17:53:41;19.10;87.80
21637;DHT22;10980;49.596;6.142;2023-09-19T17:57:04;18.70;88.70
21637;DHT22;10980;49.596;6.142;2023-09-19T18:00:26;18.30;89.50
21637;DHT22;10980;49.596;6.142;2023-09-19T18:03:49;18.20;91.40
21637;DHT22;10980;49.596;6.142;2023-09-19T18:07:18;18.10;90.90
21637;DHT22;10980;49.596;6.142;2023-09-19T18:10:40;18.50;94.50
21637;DHT22;10980;49.596;6.142;2023-09-19T18:14:02;18.60;91.80
21637;DHT22;10980;49.596;6.142;2023-09-19T18:17:24;19.00;94.10
21637;DHT22;10980;49.596;6.142;2023-09-19T18:20:46;19.50;92.50
21637;DHT22;10980;49.596;6.142;2023-09-19T18:24:08;19.30;90.10
21637;DHT22;10980;49.596;6.142;2023-09-19T18:27:35;19.00;90.20
21637;DHT22;10980;49.596;6.142;2023-09-19T18:31:05;18.60;90.50
21637;DHT22;10980;49.596;6.142;2023-09-19T18:34:28;18.30;90.70
21637;DHT22;10980;49.596;6.142;2023-09-19T18:37:50;18.10;91.10
21637;DHT22;10980;49.596;6.142;2023-09-19T18:41:14;17.80;91.60
21637;DHT22;10980;49.596;6.142;2023-09-19T18:44:37;17.70;91.90
21637;DHT22;10980;49.596;6.142;2023-09-19T18:47:59;17.50;92.10
21637;DHT22;10980;49.596;6.142;2023-09-19T18:51:21;17.30;92.50
21637;DHT22;10980;49.596;6.142;2023-09-19T18:54:44;17.20;93.10
21637;DHT22;10980;49.596;6.142;2023-09-19T18:58:06;17.00;93.50
21637;DHT22;10980;49.596;6.142;2023-09-19T19:01:28;16.90;93.90
21637;DHT22;10980;49.596;6.142;2023-09-19T19:04:50;16.70;94.50
21637;DHT22;10980;49.596;6.142;2023-09-19T19:08:12;16.60;95.00
21637;DHT22;10980;49.596;6.142;2023-09-19T19:11:34;16.50;95.40
21637;DHT22;10980;49.596;6.142;2023-09-19T19:14:56;16.50;95.90
21637;DHT22;10980;49.596;6.142;2023-09-19T19:18:20;16.40;96.30
21637;DHT22;10980;49.596;6.142;2023-09-19T19:21:42;16.30;96.70
21637;DHT22;10980;49.596;6.142;2023-09-19T19:25:04;16.20;97.00
21637;DHT22;10980;49.596;6.142;2023-09-19T19:28:27;16.10;97.30
21637;DHT22;10980;49.596;6.142;2023-09-19T19:31:50;16.00;97.60
21637;DHT22;10980;49.596;6.142;2023-09-19T19:35:13;16.00;98.30
21637;DHT22;10980;49.596;6.142;2023-09-19T19:38:37;15.90;98.60
21637;DHT22;10980;49.596;6.142;2023-09-19T19:41:59;15.80;98.90
21637;DHT22;10980;49.596;6.142;2023-09-19T19:45:21;15.80;99.30
21637;DHT22;10980;49.596;6.142;2023-09-19T19:48:50;15.70;99.90
21637;DHT22;10980;49.596;6.142;2023-09-19T19:52:13;15.70;99.60
21637;DHT22;10980;49.596;6.142;2023-09-19T19:55:36;15.70;99.90
21637;DHT22;10980;49.596;6.142;2023-09-19T19:58:58;15.70;99.90
21637;DHT22;10980;49.596;6.142;2023-09-19T20:02:20;15.70;99.90
21637;DHT22;10980;49.596;6.142;2023-09-19T20:05:42;15.70;99.90
21637;DHT22;10980;49.596;6.142;2023-09-19T20:09:04;15.70;99.90
21637;DHT22;10980;49.596;6.142;2023-09-19T20:12:27;15.80;99.90
21637;DHT22;10980;49.596;6.142;2023-09-19T20:15:54;15.90;99.90
21637;DHT22;10980;49.596;6.142;2023-09-19T20:19:17;16.00;99.90
21637;DHT22;10980;49.596;6.142;2023-09-19T20:22:45;16.10;99.90
21637;DHT22;10980;49.596;6.142;2023-09-19T20:26:07;16.10;99.80
21637;DHT22;10980;49.596;6.142;2023-09-19T20:29:33;16.20;99.90
21637;DHT22;10980;49.596;6.142;2023-09-19T20:32:55;16.20;99.70
21637;DHT22;10980;49.596;6.142;2023-09-19T20:36:17;16.30;99.70
21637;DHT22;10980;49.596;6.142;2023-09-19T20:39:39;16.20;99.90
21637;DHT22;10980;49.596;6.142;2023-09-19T20:43:01;16.20;99.90
21637;DHT22;10980;49.596;6.142;2023-09-19T20:46:23;16.20;99.90
21637;DHT22;10980;49.596;6.142;2023-09-19T20:49:45;16.30;99.90
21637;DHT22;10980;49.596;6.142;2023-09-19T20:53:08;16.30;99.90
21637;DHT22;10980;49.596;6.142;2023-09-19T20:56:31;16.40;99.90
21637;DHT22;10980;49.596;6.142;2023-09-19T20:59:54;16.40;99.90
21637;DHT22;10980;49.596;6.142;2023-09-19T21:03:15;16.40;99.90
21637;DHT22;10980;49.596;6.142;2023-09-19T21:06:38;16.50;99.90
21637;DHT22;10980;49.596;6.142;2023-09-19T21:10:00;16.50;99.90
21637;DHT22;10980;49.596;6.142;2023-09-19T21:13:23;16.50;99.90
21637;DHT22;10980;49.596;6.142;2023-09-19T21:16:45;16.40;99.90
21637;DHT22;10980;49.596;6.142;2023-09-19T21:20:11;16.40;99.90
21637;DHT22;10980;49.596;6.142;2023-09-19T21:23:35;16.20;99.90
21637;DHT22;10980;49.596;6.142;2023-09-19T21:26:57;16.10;99.90
21637;DHT22;10980;49.596;6.142;2023-09-19T21:30:19;16.10;99.90
21637;DHT22;10980;49.596;6.142;2023-09-19T21:33:41;16.10;99.90
21637;DHT22;10980;49.596;6.142;2023-09-19T21:37:06;16.00;99.90
21637;DHT22;10980;49.596;6.142;2023-09-19T21:40:29;16.00;99.90
21637;DHT22;10980;49.596;6.142;2023-09-19T21:43:51;16.00;99.90
21637;DHT22;10980;49.596;6.142;2023-09-19T21:47:13;16.00;99.90
21637;DHT22;10980;49.596;6.142;2023-09-19T21:50:36;15.90;99.90
21637;DHT22;10980;49.596;6.142;2023-09-19T21:53:58;15.90;99.90
21637;DHT22;10980;49.596;6.142;2023-09-19T21:57:23;15.90;99.90
21637;DHT22;10980;49.596;6.142;2023-09-19T22:00:45;15.80;99.90
21637;DHT22;10980;49.596;6.142;2023-09-19T22:04:08;15.80;99.90